PILOTS ONLINE: 223    ATC ONLINE: 30

KHHR - Jack Northrop Field Hawthorne Municipal Airport

Location

City Hawthorne
Country  United States
Latitude 33° 55' 22" N
Longitude 118° 20' 5" W
Elevation 66 ft
Type Medium Airport

Runways

07/25 4956 ft / 100 ft

Weather

METAR
2014/07/25 07:53
KHHR 250753Z AUTO 00000KT 10SM CLR 23/15 A2984 RMK AO2 SLP103 T02280150 403000194
TAF
No TAF available

Outbound flights

Inbound flights